Time;durP1;ratioP1;P1;durP2;ratioP2;P2;SDS_P1;SDS_P2;PMS_P1;PMS_P2;Temp;Humidity;BMP_temperature;BMP_pressure;BME280_temperature;BME280_humidity;BME280_pressure;Samples;Min_cycle;Max_cycle;Signal;HPM_P1;HPM_P2
2022/10/27 00:01:16;;;;;;;9.80;4.30;;;;;;;;;;4990711;28;20058;-61
2022/10/27 00:03:41;;;;;;;8.25;3.95;;;;;;;;;;4981085;28;20104;-61
2022/10/27 00:06:07;;;;;;;13.00;4.30;;;;;;;;;;4986995;28;20061;-61
2022/10/27 00:08:34;;;;;;;6.63;3.83;;;;;;;;;;5002720;28;20042;-61
2022/10/27 00:11:02;;;;;;;8.30;3.72;;;;;;;;;;4975038;28;20035;-61
2022/10/27 00:13:28;;;;;;;11.05;3.97;;;;;;;;;;4987042;28;20034;-61
2022/10/27 00:16:09;;;;;;;6.55;3.90;;;;;;;;;;4994920;28;20157;-61
2022/10/27 00:18:34;;;;;;;8.93;4.13;;;;;;;;;;5000620;28;20123;-61
2022/10/27 00:21:20;;;;;;;8.38;4.03;;;;;;;;;;4975034;28;20114;-61
2022/10/27 00:23:49;;;;;;;9.63;3.72;;;;;;;;;;4983995;28;20058;-61
2022/10/27 00:26:15;;;;;;;7.90;3.72;;;;;;;;;;4984472;28;20392;-61
2022/10/27 00:28:41;;;;;;;7.25;3.58;;;;;;;;;;4974340;28;20121;-61
2022/10/27 00:31:19;;;;;;;7.63;3.53;;;;;;;;;;4975681;28;20042;-61
2022/10/27 00:33:46;;;;;;;6.05;3.17;;;;;;;;;;4978810;28;20031;-61
2022/10/27 00:36:19;;;;;;;9.20;3.30;;;;;;;;;;5004295;28;20044;-61
2022/10/27 00:38:45;;;;;;;6.72;3.22;;;;;;;;;;5001927;28;20035;-61
2022/10/27 00:41:23;;;;;;;7.50;3.28;;;;;;;;;;4985308;28;20042;-61
2022/10/27 00:43:48;;;;;;;5.45;2.88;;;;;;;;;;4976354;28;20043;-61
2022/10/27 00:46:32;;;;;;;7.57;3.20;;;;;;;;;;4993350;28;20085;-61
2022/10/27 00:49:10;;;;;;;6.88;2.67;;;;;;;;;;4998542;28;20042;-61
2022/10/27 00:51:42;;;;;;;4.82;2.58;;;;;;;;;;4988783;28;20419;-61
2022/10/27 00:54:08;;;;;;;7.43;3.10;;;;;;;;;;4984846;28;20033;-61
2022/10/27 00:56:35;;;;;;;5.85;3.08;;;;;;;;;;4993694;28;20384;-61
2022/10/27 00:59:01;;;;;;;6.63;3.10;;;;;;;;;;4997410;28;20038;-61
2022/10/27 01:01:27;;;;;;;6.82;3.20;;;;;;;;;;4981319;28;20018;-61
2022/10/27 01:03:53;;;;;;;6.15;2.80;;;;;;;;;;5005533;28;20402;-61
2022/10/27 01:06:18;;;;;;;7.63;2.80;;;;;;;;;;4993251;28;20053;-61
2022/10/27 01:08:44;;;;;;;5.70;2.80;;;;;;;;;;4987306;28;20050;-61
2022/10/27 01:11:09;;;;;;;7.97;3.13;;;;;;;;;;4994405;28;20394;-61
2022/10/27 01:13:36;;;;;;;5.93;2.42;;;;;;;;;;4997098;28;20054;-61
2022/10/27 01:16:38;;;;;;;5.90;2.72;;;;;;;;;;4995059;28;20045;-61
2022/10/27 01:20:00;;;;;;;7.28;3.00;;;;;;;;;;5001084;28;20066;-61
2022/10/27 01:22:29;;;;;;;;;;;;;;;;;;5005982;28;20050;-61
2022/10/27 01:24:54;;;;;;;5.35;2.78;;;;;;;;;;4982675;28;19917;-61
2022/10/27 01:27:57;;;;;;;6.10;3.08;;;;;;;;;;5010204;28;20118;-61
2022/10/27 01:30:23;;;;;;;6.97;3.08;;;;;;;;;;4976286;28;20436;-61
2022/10/27 01:33:13;;;;;;;7.72;3.50;;;;;;;;;;4981285;28;20506;-61
2022/10/27 01:35:58;;;;;;;8.07;3.20;;;;;;;;;;4984347;28;20053;-61
2022/10/27 01:38:47;;;;;;;7.57;3.42;;;;;;;;;;4993660;28;20117;-61
2022/10/27 01:41:40;;;;;;;6.75;3.17;;;;;;;;;;4979653;28;20062;-61
2022/10/27 01:44:17;;;;;;;6.85;3.13;;;;;;;;;;4981133;28;20034;-61
2022/10/27 01:46:43;;;;;;;9.77;3.88;;;;;;;;;;4986884;28;20049;-61
2022/10/27 01:49:08;;;;;;;9.63;3.72;;;;;;;;;;4996267;28;20034;-61
2022/10/27 01:51:34;;;;;;;10.15;3.63;;;;;;;;;;4990025;28;20039;-61
2022/10/27 01:54:00;;;;;;;7.65;3.10;;;;;;;;;;5007984;28;20026;-61
2022/10/27 01:57:06;;;;;;;8.95;3.25;;;;;;;;;;4979951;28;20037;-61
2022/10/27 01:59:57;;;;;;;8.00;3.33;;;;;;;;;;4974219;28;20073;-62
2022/10/27 02:02:48;;;;;;;5.95;3.22;;;;;;;;;;4974936;28;20468;-61
2022/10/27 02:05:42;;;;;;;8.00;3.15;;;;;;;;;;4976059;28;20174;-61
2022/10/27 02:08:11;;;;;;;6.25;2.88;;;;;;;;;;4973568;28;20045;-61
2022/10/27 02:10:44;;;;;;;7.90;3.50;;;;;;;;;;4984179;28;20041;-61
2022/10/27 02:13:10;;;;;;;8.77;2.92;;;;;;;;;;5006557;28;20489;-61
2022/10/27 02:15:41;;;;;;;6.05;3.00;;;;;;;;;;4991367;28;20472;-61
2022/10/27 02:18:28;;;;;;;10.80;3.42;;;;;;;;;;4987543;28;20030;-61
2022/10/27 02:20:58;;;;;;;5.80;3.10;;;;;;;;;;4981858;28;20086;-61
2022/10/27 02:23:24;;;;;;;7.45;3.25;;;;;;;;;;4974133;28;20078;-61
2022/10/27 02:25:59;;;;;;;6.55;3.35;;;;;;;;;;4973101;28;20564;-61
2022/10/27 02:28:31;;;;;;;5.93;3.20;;;;;;;;;;4993926;28;20487;-61
2022/10/27 02:30:59;;;;;;;8.52;3.47;;;;;;;;;;4985136;28;20030;-61
2022/10/27 02:33:25;;;;;;;7.60;3.38;;;;;;;;;;4974001;28;20070;-62
2022/10/27 02:35:52;;;;;;;7.70;3.40;;;;;;;;;;4983600;28;20065;-61
2022/10/27 02:38:17;;;;;;;8.55;3.50;;;;;;;;;;4993846;28;20590;-61
2022/10/27 02:40:43;;;;;;;8.63;3.70;;;;;;;;;;5002921;28;20113;-60
2022/10/27 02:43:08;;;;;;;8.13;3.85;;;;;;;;;;5011391;28;20390;-61
2022/10/27 02:45:33;;;;;;;10.85;3.92;;;;;;;;;;4977506;28;20035;-61
2022/10/27 02:47:59;;;;;;;11.25;3.97;;;;;;;;;;4983056;28;20034;-61
2022/10/27 02:50:24;;;;;;;8.63;3.58;;;;;;;;;;4989516;28;20026;-61
2022/10/27 02:52:49;;;;;;;8.23;3.58;;;;;;;;;;5010349;28;20073;-61
2022/10/27 02:55:15;;;;;;;6.35;3.20;;;;;;;;;;4996369;28;20038;-61
2022/10/27 02:57:40;;;;;;;7.43;3.50;;;;;;;;;;4984393;28;20030;-61
2022/10/27 03:00:06;;;;;;;7.07;3.63;;;;;;;;;;4985816;28;20428;-61
2022/10/27 03:02:32;;;;;;;8.15;3.80;;;;;;;;;;5006399;28;20037;-61
2022/10/27 03:04:57;;;;;;;8.20;3.95;;;;;;;;;;4976899;28;20035;-61
2022/10/27 03:07:23;;;;;;;7.03;3.67;;;;;;;;;;4973831;28;20050;-61
2022/10/27 03:09:48;;;;;;;7.55;3.72;;;;;;;;;;4995253;28;20106;-62
2022/10/27 03:12:14;;;;;;;6.32;3.95;;;;;;;;;;4990944;28;20420;-61
2022/10/27 03:14:39;;;;;;;9.00;3.95;;;;;;;;;;4993477;28;20133;-60
2022/10/27 03:17:04;;;;;;;7.15;4.00;;;;;;;;;;4999176;28;20488;-62
2022/10/27 03:19:30;;;;;;;8.93;4.45;;;;;;;;;;4976675;28;20034;-62
2022/10/27 03:21:55;;;;;;;9.80;4.45;;;;;;;;;;4984137;28;20084;-62
2022/10/27 03:24:20;;;;;;;11.75;4.22;;;;;;;;;;4972885;28;20043;-62
2022/10/27 03:26:46;;;;;;;9.55;4.20;;;;;;;;;;4988197;28;20116;-62
2022/10/27 03:29:11;;;;;;;7.55;4.22;;;;;;;;;;4978187;28;20078;-62
2022/10/27 03:31:37;;;;;;;9.88;4.22;;;;;;;;;;4994196;28;20116;-62
2022/10/27 03:34:02;;;;;;;13.98;4.43;;;;;;;;;;5007085;28;20050;-61
2022/10/27 03:36:28;;;;;;;8.05;3.97;;;;;;;;;;4989150;28;20379;-61
2022/10/27 03:38:53;;;;;;;7.05;4.07;;;;;;;;;;4983616;28;20114;-61
2022/10/27 03:41:19;;;;;;;8.23;4.15;;;;;;;;;;4996007;28;20031;-61
2022/10/27 03:43:45;;;;;;;7.32;3.78;;;;;;;;;;4972892;28;20042;-61
2022/10/27 03:46:10;;;;;;;7.55;3.80;;;;;;;;;;5005471;28;20535;-61
2022/10/27 03:48:36;;;;;;;7.07;3.90;;;;;;;;;;4986558;28;20071;-61
2022/10/27 03:51:01;;;;;;;8.02;4.18;;;;;;;;;;5001019;28;20030;-61
2022/10/27 03:53:26;;;;;;;8.10;3.75;;;;;;;;;;5010928;28;20034;-60
2022/10/27 03:55:52;;;;;;;8.68;4.05;;;;;;;;;;5005394;28;20049;-61
2022/10/27 03:58:17;;;;;;;5.32;3.50;;;;;;;;;;4979228;28;20041;-61
2022/10/27 04:00:44;;;;;;;8.23;3.50;;;;;;;;;;5006268;28;20061;-61
2022/10/27 04:03:10;;;;;;;7.97;3.70;;;;;;;;;;5010816;28;20026;-61
2022/10/27 04:05:35;;;;;;;6.90;3.30;;;;;;;;;;5001046;28;20037;-62
2022/10/27 04:08:00;;;;;;;8.98;3.60;;;;;;;;;;5008899;28;20044;-61
2022/10/27 04:10:26;;;;;;;5.30;3.30;;;;;;;;;;4985987;28;20463;-61
2022/10/27 04:12:53;;;;;;;6.40;3.40;;;;;;;;;;5014643;28;20041;-62
2022/10/27 04:15:20;;;;;;;7.20;3.63;;;;;;;;;;5010335;28;20075;-61
2022/10/27 04:17:46;;;;;;;7.32;3.70;;;;;;;;;;4977941;28;20030;-61
2022/10/27 04:20:12;;;;;;;6.78;3.42;;;;;;;;;;4989707;28;20031;-61
2022/10/27 04:22:37;;;;;;;7.72;3.78;;;;;;;;;;4975133;28;20067;-61
2022/10/27 04:25:03;;;;;;;7.78;3.95;;;;;;;;;;4975451;28;20049;-61
2022/10/27 04:27:29;;;;;;;7.18;3.60;;;;;;;;;;4989919;28;20494;-61
2022/10/27 04:29:54;;;;;;;7.90;3.38;;;;;;;;;;5010346;28;20029;-61
2022/10/27 04:32:19;;;;;;;8.13;3.78;;;;;;;;;;4975355;28;20460;-62
2022/10/27 04:34:46;;;;;;;8.77;3.85;;;;;;;;;;5006625;28;20148;-62
2022/10/27 04:37:12;;;;;;;7.53;3.35;;;;;;;;;;4991306;28;20527;-61
2022/10/27 04:39:37;;;;;;;6.05;3.58;;;;;;;;;;5003291;28;20030;-62
2022/10/27 04:42:03;;;;;;;6.18;3.35;;;;;;;;;;5015229;28;20037;-61
2022/10/27 04:44:28;;;;;;;6.53;3.60;;;;;;;;;;5014042;28;20034;-61
2022/10/27 04:46:53;;;;;;;6.28;3.40;;;;;;;;;;5007663;28;20028;-61
2022/10/27 04:49:19;;;;;;;6.90;3.70;;;;;;;;;;5008330;28;20080;-61
2022/10/27 04:51:44;;;;;;;9.52;3.60;;;;;;;;;;5014059;28;20363;-61
2022/10/27 04:54:10;;;;;;;4.97;3.28;;;;;;;;;;5013617;28;20030;-61
2022/10/27 04:56:35;;;;;;;6.10;3.50;;;;;;;;;;5012026;28;20514;-61
2022/10/27 04:59:00;;;;;;;7.47;3.58;;;;;;;;;;5014452;28;20466;-62
2022/10/27 05:01:26;;;;;;;7.72;3.80;;;;;;;;;;5009947;28;20057;-61
2022/10/27 05:03:51;;;;;;;8.60;3.92;;;;;;;;;;5010546;28;20030;-62
2022/10/27 05:06:17;;;;;;;11.85;4.35;;;;;;;;;;5014665;28;20117;-61
2022/10/27 05:08:42;;;;;;;9.98;4.60;;;;;;;;;;5003397;28;20037;-61
2022/10/27 05:11:07;;;;;;;10.55;5.03;;;;;;;;;;5012296;28;20129;-61
2022/10/27 05:13:33;;;;;;;11.90;5.65;;;;;;;;;;5001945;28;20386;-61
2022/10/27 05:15:59;;;;;;;11.23;6.68;;;;;;;;;;5004474;28;20041;-62
2022/10/27 05:18:25;;;;;;;13.48;8.23;;;;;;;;;;5013212;28;20037;-62
2022/10/27 05:20:50;;;;;;;17.13;9.77;;;;;;;;;;5009262;28;20105;-62
2022/10/27 05:23:15;;;;;;;21.42;12.30;;;;;;;;;;5008573;28;20046;-62
2022/10/27 05:25:41;;;;;;;20.35;13.23;;;;;;;;;;5011839;28;20083;-62
2022/10/27 05:28:08;;;;;;;25.98;13.85;;;;;;;;;;5009480;28;20170;-61
2022/10/27 05:30:34;;;;;;;26.98;15.40;;;;;;;;;;5006091;28;20045;-62
2022/10/27 05:33:00;;;;;;;25.02;14.00;;;;;;;;;;5006503;28;20049;-61
2022/10/27 05:35:25;;;;;;;23.48;13.40;;;;;;;;;;5009717;28;20029;-61
2022/10/27 05:37:50;;;;;;;17.73;10.82;;;;;;;;;;5010375;28;20030;-62
2022/10/27 05:40:16;;;;;;;20.45;11.18;;;;;;;;;;5012001;28;20036;-62
2022/10/27 05:42:52;;;;;;;15.60;9.50;;;;;;;;;;5010415;28;20034;-64
2022/10/27 05:45:19;;;;;;;15.48;8.15;;;;;;;;;;5013867;28;20029;-65
2022/10/27 05:47:44;;;;;;;14.43;7.25;;;;;;;;;;4998098;28;20034;-63
2022/10/27 05:50:10;;;;;;;13.80;7.18;;;;;;;;;;4988251;28;20080;-65
2022/10/27 05:52:35;;;;;;;11.65;6.25;;;;;;;;;;4992666;28;20038;-64
2022/10/27 05:55:01;;;;;;;10.90;6.40;;;;;;;;;;5002064;28;20048;-67
2022/10/27 05:57:26;;;;;;;11.45;6.15;;;;;;;;;;5013145;28;20037;-68
2022/10/27 05:59:52;;;;;;;11.38;5.30;;;;;;;;;;5010271;28;20026;-68
2022/10/27 06:02:17;;;;;;;11.55;4.60;;;;;;;;;;5002256;28;20033;-68
2022/10/27 06:04:43;;;;;;;9.27;4.50;;;;;;;;;;4994145;28;20038;-69
2022/10/27 06:07:08;;;;;;;7.95;4.63;;;;;;;;;;4993287;28;20038;-68
2022/10/27 06:09:33;;;;;;;10.40;4.40;;;;;;;;;;5004378;28;20030;-68
2022/10/27 06:11:59;;;;;;;9.02;4.32;;;;;;;;;;5012235;28;20098;-68
2022/10/27 06:14:24;;;;;;;10.25;4.13;;;;;;;;;;4998774;28;20038;-67
2022/10/27 06:16:49;;;;;;;11.02;4.18;;;;;;;;;;4991728;28;20105;-68
2022/10/27 06:19:15;;;;;;;9.15;4.40;;;;;;;;;;5001769;28;20042;-66
2022/10/27 06:21:40;;;;;;;8.10;4.25;;;;;;;;;;4992130;28;20483;-65
2022/10/27 06:24:06;;;;;;;9.30;4.35;;;;;;;;;;5003409;28;20136;-66
2022/10/27 06:26:31;;;;;;;10.02;4.30;;;;;;;;;;5012793;28;20399;-66
2022/10/27 06:28:57;;;;;;;7.95;3.75;;;;;;;;;;5009516;28;20053;-68
2022/10/27 06:31:22;;;;;;;7.43;3.80;;;;;;;;;;5002959;28;20129;-64
2022/10/27 06:33:47;;;;;;;8.80;4.32;;;;;;;;;;4994531;28;20041;-64
2022/10/27 06:36:13;;;;;;;8.77;3.90;;;;;;;;;;4999817;28;20034;-65
2022/10/27 06:38:38;;;;;;;13.48;3.97;;;;;;;;;;5001594;28;20100;-65
2022/10/27 06:41:04;;;;;;;10.20;4.60;;;;;;;;;;5012063;28;20030;-66
2022/10/27 06:43:29;;;;;;;10.43;4.05;;;;;;;;;;5011529;28;20026;-63
2022/10/27 06:45:55;;;;;;;12.18;4.18;;;;;;;;;;5009987;28;20434;-65
2022/10/27 06:48:20;;;;;;;9.43;4.43;;;;;;;;;;5000184;28;20029;-65
2022/10/27 06:50:46;;;;;;;11.90;4.13;;;;;;;;;;5011790;28;20075;-63
2022/10/27 06:53:11;;;;;;;12.45;4.18;;;;;;;;;;5004225;28;20026;-66
2022/10/27 06:55:36;;;;;;;8.07;4.00;;;;;;;;;;4992138;28;20062;-65
2022/10/27 06:58:02;;;;;;;10.48;4.32;;;;;;;;;;5007682;28;20092;-64
2022/10/27 07:00:27;;;;;;;10.80;4.00;;;;;;;;;;5004360;28;20522;-65
2022/10/27 07:02:53;;;;;;;12.18;4.30;;;;;;;;;;5004869;28;20486;-63
2022/10/27 07:05:18;;;;;;;7.20;4.10;;;;;;;;;;5004121;28;20387;-64
2022/10/27 07:07:51;;;;;;;10.18;4.13;;;;;;;;;;5003515;28;20030;-63
2022/10/27 07:10:17;;;;;;;10.90;4.20;;;;;;;;;;5007997;28;20088;-64
2022/10/27 07:12:57;;;;;;;9.73;3.78;;;;;;;;;;5007711;28;20184;-63
2022/10/27 07:15:24;;;;;;;7.30;4.30;;;;;;;;;;4998918;28;20117;-64
2022/10/27 07:18:09;;;;;;;8.07;3.88;;;;;;;;;;4996187;28;20088;-63
2022/10/27 07:20:37;;;;;;;7.90;3.80;;;;;;;;;;4983629;28;20043;-64
2022/10/27 07:23:03;;;;;;;15.98;5.22;;;;;;;;;;5006334;28;20140;-64
2022/10/27 07:25:29;;;;;;;9.95;4.18;;;;;;;;;;5011897;28;20388;-64
2022/10/27 07:27:55;;;;;;;12.20;4.40;;;;;;;;;;5007592;28;20077;-65
2022/10/27 07:30:25;;;;;;;9.30;4.10;;;;;;;;;;4998624;28;20479;-64
2022/10/27 07:32:51;;;;;;;9.48;4.00;;;;;;;;;;4995182;28;20045;-64
2022/10/27 07:35:17;;;;;;;10.73;4.15;;;;;;;;;;5008553;28;20042;-64
2022/10/27 07:37:44;;;;;;;9.50;4.20;;;;;;;;;;5008514;28;20414;-63
2022/10/27 07:40:11;;;;;;;13.80;4.30;;;;;;;;;;5010051;28;20523;-63
2022/10/27 07:42:50;;;;;;;8.27;3.40;;;;;;;;;;5010912;28;20034;-63
2022/10/27 07:45:17;;;;;;;10.43;3.83;;;;;;;;;;5005698;28;20119;-66
2022/10/27 07:47:47;;;;;;;9.02;3.50;;;;;;;;;;4994283;28;20038;-65
2022/10/27 07:50:13;;;;;;;8.25;3.85;;;;;;;;;;5011646;28;20045;-66
2022/10/27 07:52:45;;;;;;;12.98;3.90;;;;;;;;;;5005549;28;20027;-66
2022/10/27 07:55:12;;;;;;;11.45;3.30;;;;;;;;;;5011647;28;20030;-66
2022/10/27 07:57:37;;;;;;;8.73;4.32;;;;;;;;;;5004435;28;20030;-63
2022/10/27 08:00:05;;;;;;;8.90;3.33;;;;;;;;;;4999579;28;20219;-63
2022/10/27 08:02:30;;;;;;;9.77;3.35;;;;;;;;;;4990850;28;20105;-64
2022/10/27 08:04:56;;;;;;;11.07;3.25;;;;;;;;;;5006017;28;20110;-64
2022/10/27 08:07:22;;;;;;;9.90;3.00;;;;;;;;;;5010193;28;20124;-64
2022/10/27 08:09:47;;;;;;;12.18;3.15;;;;;;;;;;5005956;28;20077;-65
2022/10/27 08:12:12;;;;;;;9.43;3.10;;;;;;;;;;5009878;28;20504;-65
2022/10/27 08:14:38;;;;;;;12.45;2.85;;;;;;;;;;5005543;28;20058;-65
2022/10/27 08:17:03;;;;;;;9.57;3.20;;;;;;;;;;5002406;28;20034;-65
2022/10/27 08:19:28;;;;;;;6.90;2.88;;;;;;;;;;5007669;28;20029;-65
2022/10/27 08:21:54;;;;;;;10.75;2.70;;;;;;;;;;4991874;28;20424;-64
2022/10/27 08:24:19;;;;;;;4.93;2.70;;;;;;;;;;4990532;28;20050;-66
2022/10/27 08:26:44;;;;;;;4.90;2.67;;;;;;;;;;4999874;28;20517;-63
2022/10/27 08:29:10;;;;;;;6.85;2.70;;;;;;;;;;4997604;28;20046;-64
2022/10/27 08:31:35;;;;;;;8.52;2.78;;;;;;;;;;4987395;28;20039;-65
2022/10/27 08:34:00;;;;;;;8.13;2.40;;;;;;;;;;4989318;28;20038;-65
2022/10/27 08:36:26;;;;;;;8.52;2.20;;;;;;;;;;4974834;28;20030;-64
2022/10/27 08:38:51;;;;;;;5.07;2.38;;;;;;;;;;4985024;28;20065;-64
2022/10/27 08:41:26;;;;;;;7.28;2.30;;;;;;;;;;4986392;28;20039;-65
2022/10/27 08:44:07;;;;;;;5.25;2.10;;;;;;;;;;4975666;28;20472;-63
2022/10/27 08:46:47;;;;;;;8.32;2.28;;;;;;;;;;4995023;28;20065;-64
2022/10/27 08:49:48;;;;;;;5.72;1.73;;;;;;;;;;4982166;28;20464;-65
2022/10/27 08:52:39;;;;;;;4.72;1.80;;;;;;;;;;4989774;28;20073;-62
2022/10/27 08:55:23;;;;;;;3.50;1.60;;;;;;;;;;4977056;28;20166;-64
2022/10/27 08:58:19;;;;;;;3.92;1.77;;;;;;;;;;4998662;28;20480;-65
2022/10/27 09:00:58;;;;;;;4.80;1.90;;;;;;;;;;4994369;28;20554;-62
2022/10/27 09:04:01;;;;;;;5.72;1.58;;;;;;;;;;5000349;28;20160;-66
2022/10/27 09:06:59;;;;;;;6.00;1.73;;;;;;;;;;4999935;28;20041;-64
2022/10/27 09:09:59;;;;;;;2.67;1.60;;;;;;;;;;4982292;28;20053;-64
2022/10/27 09:13:02;;;;;;;6.03;1.67;;;;;;;;;;5011052;28;20041;-63
2022/10/27 09:15:43;;;;;;;3.78;1.50;;;;;;;;;;4994604;28;20052;-63
2022/10/27 09:18:18;;;;;;;3.65;1.40;;;;;;;;;;4988922;28;20563;-64
2022/10/27 09:20:46;;;;;;;3.13;1.50;;;;;;;;;;5010504;28;20560;-64
2022/10/27 09:23:17;;;;;;;6.55;1.50;;;;;;;;;;4998174;28;20137;-63
2022/10/27 09:25:45;;;;;;;6.03;1.30;;;;;;;;;;4974837;28;20117;-65
2022/10/27 09:28:34;;;;;;;7.78;1.40;;;;;;;;;;4981590;28;20053;-65
2022/10/27 09:31:02;;;;;;;2.75;1.23;;;;;;;;;;4994293;28;20504;-64
2022/10/27 09:33:31;;;;;;;3.60;1.30;;;;;;;;;;4994201;28;20080;-63
2022/10/27 09:35:57;;;;;;;2.25;1.20;;;;;;;;;;4992519;28;20462;-63
2022/10/27 09:38:24;;;;;;;7.93;1.42;;;;;;;;;;4999192;28;20029;-63
2022/10/27 09:40:53;;;;;;;3.45;1.30;;;;;;;;;;4996431;28;20522;-63
2022/10/27 09:43:22;;;;;;;2.42;1.20;;;;;;;;;;4997068;28;20033;-64
2022/10/27 09:45:57;;;;;;;3.05;1.30;;;;;;;;;;4987965;28;20031;-65
2022/10/27 09:48:25;;;;;;;7.03;1.10;;;;;;;;;;4979718;28;20315;-67
2022/10/27 09:51:21;;;;;;;3.70;1.30;;;;;;;;;;4978342;28;20400;-64
2022/10/27 09:53:49;;;;;;;3.33;1.30;;;;;;;;;;4976702;28;20041;-65
2022/10/27 09:56:27;;;;;;;4.57;1.20;;;;;;;;;;4986827;28;20026;-65
2022/10/27 09:59:20;;;;;;;5.97;1.33;;;;;;;;;;4993143;28;20117;-65
2022/10/27 10:01:54;;;;;;;3.00;1.10;;;;;;;;;;4992525;28;20062;-64
2022/10/27 10:04:19;;;;;;;2.70;1.10;;;;;;;;;;4981254;28;20054;-63
2022/10/27 10:06:58;;;;;;;4.30;1.00;;;;;;;;;;5004232;28;20443;-64
2022/10/27 10:09:28;;;;;;;3.35;1.10;;;;;;;;;;4977829;28;20042;-64
2022/10/27 10:12:19;;;;;;;4.33;1.03;;;;;;;;;;4976326;28;20042;-64
2022/10/27 10:14:46;;;;;;;3.15;1.17;;;;;;;;;;5000838;28;20022;-64
2022/10/27 10:17:23;;;;;;;2.45;1.00;;;;;;;;;;5012422;28;20071;-65
2022/10/27 10:19:51;;;;;;;2.92;1.02;;;;;;;;;;5004524;28;20038;-65
2022/10/27 10:22:35;;;;;;;3.33;1.10;;;;;;;;;;4983550;28;20041;-64
2022/10/27 10:25:20;;;;;;;1.75;1.20;;;;;;;;;;5004863;28;20026;-67
2022/10/27 10:27:54;;;;;;;3.65;1.25;;;;;;;;;;4985353;28;20037;-64
2022/10/27 10:30:20;;;;;;;1.98;1.00;;;;;;;;;;4992516;28;20026;-64
2022/10/27 10:32:51;;;;;;;2.42;1.02;;;;;;;;;;5005443;28;20037;-63
2022/10/27 10:35:38;;;;;;;2.25;1.00;;;;;;;;;;4990606;28;20041;-64
2022/10/27 10:38:23;;;;;;;2.78;0.98;;;;;;;;;;4992712;28;20034;-70
2022/10/27 10:41:11;;;;;;;3.67;1.10;;;;;;;;;;4986346;28;20121;-64
2022/10/27 10:43:37;;;;;;;4.95;1.42;;;;;;;;;;4987843;28;20035;-65
2022/10/27 10:46:04;;;;;;;2.42;1.20;;;;;;;;;;5007372;28;20037;-66
2022/10/27 10:48:31;;;;;;;3.70;1.33;;;;;;;;;;4999500;28;20061;-64
2022/10/27 10:50:57;;;;;;;4.45;1.20;;;;;;;;;;4979738;28;20063;-64
2022/10/27 10:53:38;;;;;;;4.50;1.42;;;;;;;;;;4980940;28;20034;-65
2022/10/27 10:56:20;;;;;;;3.90;1.40;;;;;;;;;;4973272;28;20094;-65
2022/10/27 10:58:47;;;;;;;5.38;1.30;;;;;;;;;;4972173;28;20399;-65
2022/10/27 11:01:12;;;;;;;6.28;1.50;;;;;;;;;;4994922;28;20058;-67
2022/10/27 11:03:46;;;;;;;2.58;1.23;;;;;;;;;;4999197;28;20092;-63
2022/10/27 11:06:19;;;;;;;5.72;2.17;;;;;;;;;;5003208;28;20037;-66
2022/10/27 11:08:56;;;;;;;4.18;1.30;;;;;;;;;;4992641;28;20080;-66
2022/10/27 11:11:24;;;;;;;5.63;1.98;;;;;;;;;;4993178;28;20152;-67
2022/10/27 11:13:57;;;;;;;3.58;1.58;;;;;;;;;;5009192;28;20061;-65
2022/10/27 11:16:23;;;;;;;3.88;1.40;;;;;;;;;;5005462;28;20029;-66
2022/10/27 11:18:53;;;;;;;6.63;1.50;;;;;;;;;;5010536;28;20390;-65
2022/10/27 11:21:41;;;;;;;4.78;1.60;;;;;;;;;;5010716;28;20080;-67
2022/10/27 11:24:15;;;;;;;2.88;1.50;;;;;;;;;;5002657;28;20092;-67
2022/10/27 11:26:52;;;;;;;5.85;1.80;;;;;;;;;;5007571;28;20026;-67
2022/10/27 11:29:24;;;;;;;6.07;1.55;;;;;;;;;;5009641;28;20038;-66
2022/10/27 11:31:55;;;;;;;4.97;1.60;;;;;;;;;;5010094;28;20057;-65
2022/10/27 11:34:42;;;;;;;5.57;1.50;;;;;;;;;;5012481;28;20088;-67
2022/10/27 11:37:17;;;;;;;8.43;1.83;;;;;;;;;;5004589;28;20030;-65
2022/10/27 11:39:53;;;;;;;5.13;1.70;;;;;;;;;;4996868;28;20099;-67
2022/10/27 11:42:34;;;;;;;5.93;1.92;;;;;;;;;;4992871;28;20407;-66
2022/10/27 11:45:17;;;;;;;6.53;1.88;;;;;;;;;;5008617;28;20030;-67
2022/10/27 11:47:49;;;;;;;7.32;1.60;;;;;;;;;;5010638;28;20041;-66
2022/10/27 11:50:42;;;;;;;5.20;1.83;;;;;;;;;;5004306;28;20040;-63
2022/10/27 11:53:09;;;;;;;6.80;1.77;;;;;;;;;;5010614;28;20050;-65
2022/10/27 11:55:56;;;;;;;3.45;1.55;;;;;;;;;;5007864;28;20074;-67
2022/10/27 11:58:58;;;;;;;6.22;1.77;;;;;;;;;;5011967;28;20041;-64
2022/10/27 12:01:32;;;;;;;5.05;1.55;;;;;;;;;;5006862;28;20038;-64
2022/10/27 12:04:36;;;;;;;8.68;1.83;;;;;;;;;;5009646;28;20497;-64
2022/10/27 12:07:30;;;;;;;4.25;1.58;;;;;;;;;;4995707;28;20471;-65
2022/10/27 12:10:41;;;;;;;4.45;1.45;;;;;;;;;;4989929;28;20034;-64
2022/10/27 12:13:15;;;;;;;6.15;1.67;;;;;;;;;;5002188;28;20046;-66
2022/10/27 12:16:05;;;;;;;3.88;1.92;;;;;;;;;;5011917;28;20037;-64
2022/10/27 12:18:54;;;;;;;6.18;1.70;;;;;;;;;;5004201;28;20076;-65
2022/10/27 12:21:24;;;;;;;8.32;1.60;;;;;;;;;;5008492;28;20030;-65
2022/10/27 12:24:03;;;;;;;5.07;1.60;;;;;;;;;;5015631;28;20058;-65
2022/10/27 12:26:47;;;;;;;3.88;1.50;;;;;;;;;;5012079;28;20505;-65
2022/10/27 12:29:15;;;;;;;6.40;1.63;;;;;;;;;;5014232;28;20030;-65
2022/10/27 12:32:16;;;;;;;3.45;1.67;;;;;;;;;;5000374;28;20059;-66
2022/10/27 12:35:05;;;;;;;5.20;1.80;;;;;;;;;;5012883;28;20065;-66
2022/10/27 12:37:49;;;;;;;9.13;1.80;;;;;;;;;;5004167;28;20048;-67
2022/10/27 12:40:27;;;;;;;5.47;1.92;;;;;;;;;;5012463;28;20040;-68
2022/10/27 12:43:24;;;;;;;5.53;1.55;;;;;;;;;;5008952;28;20034;-70
2022/10/27 12:46:38;;;;;;;7.22;1.83;;;;;;;;;;5013735;28;20073;-66
2022/10/27 12:49:32;;;;;;;5.00;1.63;;;;;;;;;;5008467;28;20046;-67
2022/10/27 12:52:25;;;;;;;7.15;1.80;;;;;;;;;;4974856;28;20480;-68
2022/10/27 12:55:09;;;;;;;6.15;1.80;;;;;;;;;;4976016;28;20056;-68
2022/10/27 12:58:02;;;;;;;6.18;1.88;;;;;;;;;;4975287;28;20150;-66
2022/10/27 13:00:36;;;;;;;5.43;1.85;;;;;;;;;;5003560;28;20045;-67
2022/10/27 13:03:27;;;;;;;4.20;1.60;;;;;;;;;;5013954;28;20348;-69
2022/10/27 13:06:07;;;;;;;7.18;1.95;;;;;;;;;;5014215;28;20091;-67
2022/10/27 13:08:58;;;;;;;4.57;1.87;;;;;;;;;;5012061;28;20029;-69
2022/10/27 13:11:58;;;;;;;6.07;1.88;;;;;;;;;;5014241;28;20033;-69
2022/10/27 13:14:26;;;;;;;;;;;;;;;;;;4998476;28;20050;-68
2022/10/27 13:17:13;;;;;;;12.00;1.60;;;;;;;;;;5013200;28;19925;-67
2022/10/27 13:19:57;;;;;;;6.57;2.17;;;;;;;;;;5013923;28;20061;-68
2022/10/27 13:22:43;;;;;;;4.20;1.65;;;;;;;;;;5000146;28;20054;-67
2022/10/27 13:25:17;;;;;;;6.97;1.80;;;;;;;;;;5005366;28;20022;-68
2022/10/27 13:27:59;;;;;;;5.97;2.05;;;;;;;;;;4994000;28;20078;-70
2022/10/27 13:30:30;;;;;;;5.32;1.80;;;;;;;;;;5007995;28;20040;-67
2022/10/27 13:32:55;;;;;;;;;;;;;;;;;;5011434;28;20037;-69
2022/10/27 13:35:35;;;;;;;7.30;1.80;;;;;;;;;;5011450;28;19928;-69
2022/10/27 13:38:19;;;;;;;7.85;1.70;;;;;;;;;;4997478;28;20107;-67
2022/10/27 13:40:44;;;;;;;7.43;1.65;;;;;;;;;;4999784;28;20053;-66
2022/10/27 13:43:22;;;;;;;15.63;1.80;;;;;;;;;;5006026;28;20030;-68
2022/10/27 13:45:53;;;;;;;4.68;2.05;;;;;;;;;;5006390;28;20395;-67
2022/10/27 13:48:18;;;;;;;;;;;;;;;;;;5013224;28;20040;-65
2022/10/27 13:50:48;;;;;;;4.57;1.63;;;;;;;;;;5012017;28;19917;-68
2022/10/27 13:53:13;;;;;;;6.30;1.90;;;;;;;;;;4985379;28;20065;-67
2022/10/27 13:55:39;;;;;;;4.95;1.90;;;;;;;;;;5001398;28;20121;-67
2022/10/27 13:58:20;;;;;;;6.82;2.00;;;;;;;;;;4998106;28;20036;-67
2022/10/27 14:01:03;;;;;;;7.25;2.20;;;;;;;;;;5009808;28;20115;-66
2022/10/27 14:03:37;;;;;;;6.57;1.95;;;;;;;;;;5006594;28;20055;-66
2022/10/27 14:06:08;;;;;;;5.15;1.67;;;;;;;;;;5008789;28;20037;-67
2022/10/27 14:08:47;;;;;;;6.53;1.88;;;;;;;;;;5003213;28;20471;-67
2022/10/27 14:11:21;;;;;;;9.40;2.10;;;;;;;;;;5010402;28;20030;-67
2022/10/27 14:13:55;;;;;;;6.85;1.88;;;;;;;;;;5011622;28;20061;-67
2022/10/27 14:16:46;;;;;;;5.93;1.85;;;;;;;;;;5011195;28;20033;-68
2022/10/27 14:19:18;;;;;;;7.03;1.88;;;;;;;;;;5008642;28;20069;-67
2022/10/27 14:21:52;;;;;;;11.32;2.10;;;;;;;;;;5011167;28;20026;-67
2022/10/27 14:24:46;;;;;;;6.70;2.00;;;;;;;;;;5011236;28;20084;-67
2022/10/27 14:27:15;;;;;;;7.10;2.00;;;;;;;;;;5007652;28;20042;-67
2022/10/27 14:29:41;;;;;;;6.85;2.83;;;;;;;;;;5012095;28;20038;-67
2022/10/27 14:32:19;;;;;;;9.90;2.30;;;;;;;;;;5012276;28;20025;-68
2022/10/27 14:34:46;;;;;;;9.43;2.63;;;;;;;;;;5004128;28;20068;-67
2022/10/27 14:37:19;;;;;;;6.80;2.05;;;;;;;;;;5011233;28;20069;-68
2022/10/27 14:39:47;;;;;;;5.57;1.90;;;;;;;;;;5011074;28;20038;-67
2022/10/27 14:42:19;;;;;;;9.35;2.30;;;;;;;;;;5011877;28;20070;-67
2022/10/27 14:44:51;;;;;;;4.38;1.90;;;;;;;;;;5011023;28;20029;-69
2022/10/27 14:47:16;;;;;;;7.70;2.22;;;;;;;;;;5009172;28;20080;-67
2022/10/27 14:49:47;;;;;;;7.65;2.10;;;;;;;;;;5012553;28;20378;-68
2022/10/27 14:52:22;;;;;;;6.38;2.20;;;;;;;;;;4994269;28;20141;-68
2022/10/27 14:54:52;;;;;;;6.80;2.22;;;;;;;;;;4992115;28;20042;-67
2022/10/27 14:57:36;;;;;;;6.20;2.42;;;;;;;;;;4994145;28;20440;-67
2022/10/27 15:00:20;;;;;;;5.55;2.22;;;;;;;;;;5002111;28;20566;-68
2022/10/27 15:02:46;;;;;;;7.88;2.30;;;;;;;;;;4994572;28;20029;-67
2022/10/27 15:05:23;;;;;;;7.35;2.60;;;;;;;;;;5008101;28;20029;-69
2022/10/27 15:07:57;;;;;;;8.48;2.35;;;;;;;;;;5006085;28;20065;-66
2022/10/27 15:10:25;;;;;;;6.72;2.35;;;;;;;;;;5004983;28;20083;-68
2022/10/27 15:12:55;;;;;;;13.18;2.30;;;;;;;;;;5001619;28;20084;-65